Stations météo

réclame
Mon MeteoGroup
Carlsfeld, Allemagne (10574): Température de l'air & dewpoint: 09.12.2017 18:00:00 - 15.12.2017 18:00:00 (CET)Carlsfeld, Allemagne (10574): Température de l'air 5cm & Température de l'air -5cm: 09.12.2017 18:00:00 - 15.12.2017 18:00:00 (CET)Carlsfeld, Allemagne (10574): Température de l'air -20cm & Température de l'air -100cm: 09.12.2017 18:00:00 - 15.12.2017 18:00:00 (CET)Carlsfeld, Allemagne (10574): Vitesse du vent & gusts: 09.12.2017 18:00:00 - 15.12.2017 18:00:00 (CET)Carlsfeld, Allemagne (10574): Direction du vent: 09.12.2017 18:00:00 - 15.12.2017 18:00:00 (CET)Carlsfeld, Allemagne (10574): visibility: 09.12.2017 18:00:00 - 15.12.2017 18:00:00 (CET)Carlsfeld, Allemagne (10574): Ensoleillement: 09.12.2017 18:00:00 - 15.12.2017 18:00:00 (CET)Carlsfeld, Allemagne (10574): Quantités de précipitations: 09.12.2017 18:00:00 - 15.12.2017 18:00:00 (CET)
Date & Time tt [°C] td [°C] tt 5cm [°C] tt -5cm [°C] tt -20cm [°C] tt -100cm [°C] ff [km/h] ff [knt] fx [km/h] fx [knt] dd vv [km] sd [min] rr [mm]
15.12.2017 18:00:00 -2,1 -2,6 -0,1 0,3 1,1 4,2 5 3 12 7 SSW 9 0 0,2
15.12.2017 17:00:00 -2,3 -3,1 -0,1 0,3 1,1 4,2 7 4 18 10 SW 3,8 0 0,0
15.12.2017 16:00:00 -2,3 -3,3 -0,1 0,3 1,1 4,2 11 6 21 11 W 32 0 0,0
15.12.2017 15:00:00 -2,2 -3,4 -0,1 0,3 1,1 4,2 11 6 24 13 WSW 55 0 0,0
15.12.2017 14:00:00 -2,1 -3,5 -0,2 0,3 1,1 4,2 16 9 32 18 W 52 41 0,0
15.12.2017 13:00:00 -1,6 -3,5 -0,3 0,3 1,1 4,2 17 9 39 21 W 31 0 0,0
15.12.2017 12:00:00 -1,8 -2,8 -0,2 0,3 1,1 4,2 16 8 35 19 W 8 0 0,0
15.12.2017 11:00:00 -1,9 -2,5 -0,2 0,3 1,1 4,2 16 9 40 22 W 3,1 0 0,0
15.12.2017 10:00:00 -2,0 -2,7 -0,3 0,3 1,1 4,2 16 9 42 23 W 49 0 0,1
15.12.2017 09:00:00 -1,8 -2,5 -0,2 0,3 1,1 4,2 18 10 42 23 W 2,6 0 1,5
15.12.2017 08:00:00 -1,6 -2,3 -0,2 0,3 1,1 4,2 19 10 34 18 W 0,3 0 2,2
15.12.2017 07:00:00 -1,0 -1,6 -0,2 0,3 1,1 4,2 11 6 22 12 WSW 0,5 0 1,3
15.12.2017 06:00:00 -1,0 -1,5 -0,2 0,3 1,1 4,2 10 5 30 16 WSW 1,1 0 0,2
15.12.2017 05:00:00 -1,2 -1,5 -0,2 0,3 1,1 4,2 13 7 27 14 WSW 1,1 0 0,1
15.12.2017 04:00:00 -1,2 -1,4 -0,2 0,3 1,1 4,2 12 6 24 13 WSW 0,6 0 0,0
15.12.2017 03:00:00 -1,2 -1,7 -0,2 0,3 1,1 4,2 11 6 29 15 SW 1,9 0 0,1
15.12.2017 02:00:00 -1,3 -1,7 -0,2 0,3 1,1 4,2 13 7 31 17 SW 8 0 0,1
15.12.2017 01:00:00 -1,2 -1,9 -0,2 0,3 1,1 4,2 13 7 29 16 SW 0,9 0 0,1
15.12.2017 00:00:00 -1,4 -2,1 -0,2 0,3 1,1 4,2 14 7 36 19 SW 5 0 0,2
14.12.2017 23:00:00 -1,5 -2,4 -0,3 0,3 1,1 4,2 16 9 34 18 SW 18 0 0,0
14.12.2017 22:00:00 -1,3 -2,4 -0,2 0,3 1,1 4,2 15 8 31 17 WSW 10 0 0,0
14.12.2017 21:00:00 -1,5 -2,3 -0,2 0,3 1,1 4,2 14 7 32 18 SW 20 0 0,6
14.12.2017 20:00:00 -1,6 -2,6 -0,2 0,3 1,1 4,2 16 9 41 22 SW 4,1 0 0,5
14.12.2017 19:00:00 -1,6 -2,7 -0,2 0,3 1,1 4,2 15 8 34 18 SW 0,3 0 0,0
14.12.2017 18:00:00 -1,5 -3,1 -0,2 0,3 1,1 4,2 16 9 34 18 SW 20 0 0,0
14.12.2017 17:00:00 -1,5 -2,9 -0,2 0,3 1,1 4,2 16 9 36 19 WSW 27 0 0,1
14.12.2017 16:00:00 -1,3 -2,7 -0,2 0,3 1,1 4,2 14 8 38 21 SW 37 0 0,0
14.12.2017 15:00:00 -1,3 -2,8 -0,2 0,3 1,1 4,2 17 9 48 26 WSW 39 0 0,0
14.12.2017 14:00:00 -1,4 -3,0 -0,2 0,3 1,1 4,2 21 12 49 26 W 28 0 0,0
14.12.2017 13:00:00 -1,6 -3,5 -0,3 0,3 1,1 4,2 25 13 57 31 W 18 1 0,0
14.12.2017 12:00:00 -1,9 -4,0 -0,2 0,3 1,1 4,2 26 14 55 30 W 12 1 0,1
14.12.2017 11:00:00 -2,0 -3,3 -0,2 0,3 1,1 4,2 29 16 64 35 W 2,8 0 0,1
14.12.2017 10:00:00 -1,8 -3,3 -0,3 0,3 1,1 4,2 27 15 71 39 W 15 0 0,0
14.12.2017 09:00:00 -1,2 -2,6 -0,3 0,3 1,1 4,2 26 14 75 41 W 6 0 0,5
14.12.2017 08:00:00 -0,6 -1,2 -0,3 0,3 1,1 4,2 20 11 41 22 WSW 0,6 0 1,7
14.12.2017 07:00:00 -0,3 -1,1 -0,4 0,3 1,1 4,2 19 10 46 25 WSW 24 0 0,0
14.12.2017 06:00:00 -0,5 -1,0 -0,4 0,3 1,1 4,2 18 10 36 19 WSW 43 0 0,1
14.12.2017 05:00:00 -0,8 -1,1 -0,4 0,3 1,1 4,2 17 9 42 23 WSW 3,8 0 0,5
14.12.2017 04:00:00 -1,0 -1,2 -0,5 0,3 1,1 4,2 23 12 46 25 SW 0,6 0 0,3
14.12.2017 03:00:00 -0,9 -1,4 -0,5 0,3 1,1 4,2 25 14 48 26 SW 1,5 0 2,4
14.12.2017 02:00:00 -1,1 -1,6 -0,5 0,3 1,1 4,2 20 11 48 26 SW 0,3 0 1,3
14.12.2017 01:00:00 -1,8 -2,1 -0,5 0,3 1,1 4,2 21 12 49 26 SW 1,2 0 0,0
14.12.2017 00:00:00 -2,1 -2,4 -0,6 0,3 1,1 4,2 24 13 46 25 SW 1,0 0 0,1
13.12.2017 23:00:00 -2,4 -3,0 -0,6 0,3 1,1 4,2 20 11 46 25 SW 6 0 0,1
13.12.2017 22:00:00 -2,7 -3,6 -0,6 0,3 1,0 4,2 23 12 59 32 SW 2,0 0 0,1
13.12.2017 21:00:00 -2,8 -3,9 -0,6 0,3 1,0 4,2 27 15 58 31 SW 1,3 0 0,6
13.12.2017 20:00:00 -3,0 -4,4 -0,6 0,3 1,0 4,2 21 12 56 31 SW 1,0 0 0,2
13.12.2017 19:00:00 -2,8 -6,0 -0,5 0,3 1,0 4,2 23 12 53 28 SW 47 0 0,0
13.12.2017 18:00:00 -2,8 -6,3 -0,5 0,3 1,0 4,2 27 15 56 31 SSW 42 0 0,0
13.12.2017 17:00:00 -2,8 -5,8 -0,5 0,3 1,0 4,2 23 13 45 25 SSW 47 0 0,0
13.12.2017 16:00:00 -2,7 -5,2 -0,5 0,3 1,0 4,2 18 10 42 23 SSW 30 6 0,0
13.12.2017 15:00:00 -2,3 -5,1 -0,5 0,3 1,0 4,2 21 11 46 25 SSW 28 45 0,0
13.12.2017 14:00:00 -2,2 -4,9 -0,5 0,3 1,0 4,2 15 8 42 23 SSW 22 59 0,0
13.12.2017 13:00:00 -2,4 -5,3 -0,5 0,3 1,0 4,2 16 9 37 20 SSW 16 53 0,0
13.12.2017 12:00:00 -2,9 -5,4 -0,6 0,3 1,0 4,1 17 9 40 21 SW 31 24 0,0
13.12.2017 11:00:00 -3,3 -5,1 -0,6 0,3 1,0 4,1 16 9 41 22 WSW 25 6 0,0
13.12.2017 10:00:00 -3,5 -4,9 -0,6 0,3 1,0 4,1 15 8 35 19 WSW 23 0 0,0
13.12.2017 09:00:00 -3,7 -5,0 -0,6 0,3 1,0 4,1 16 9 38 21 WSW 18 0 0,0
13.12.2017 08:00:00 -3,9 -5,3 -0,6 0,3 1,0 4,1 16 9 38 21 WSW 31 0 0,0
13.12.2017 07:00:00 -4,2 -5,6 -0,6 0,3 1,0 4,1 14 8 30 16 WSW 26 0 0,0
13.12.2017 06:00:00 -3,8 -5,4 -0,5 0,3 1,0 4,1 11 6 29 16 WSW 36 0 0,0
13.12.2017 05:00:00 -3,8 -5,3 -0,5 0,3 1,0 4,1 14 7 32 17 W 31 0 0,0
13.12.2017 04:00:00 -4,1 -5,4 -0,4 0,3 1,0 4,1 12 7 41 22 WSW 33 0 0,0
13.12.2017 03:00:00 -3,9 -5,1 -0,4 0,3 1,0 4,1 17 9 40 21 WSW 26 0 0,0
13.12.2017 02:00:00 -3,7 -5,2 -0,4 0,3 0,9 4,1 14 8 29 16 W 32 0 0,0
13.12.2017 01:00:00 -3,2 -4,8 -0,4 0,2 0,9 4,1 12 6 29 16 W 30 0 0,0
13.12.2017 00:00:00 -2,8 -4,0 -0,3 0,2 0,9 4,1 11 6 32 17 W 17 0 0,0
12.12.2017 23:00:00 -2,6 -3,9 -0,3 0,2 0,9 4,1 17 9 30 16 W 23 0 0,0
12.12.2017 22:00:00 -2,8 -4,0 -0,2 0,2 0,9 4,1 10 6 30 16 W 24 0 0,0
12.12.2017 21:00:00 -2,5 -3,8 -0,2 0,2 0,9 4,1 14 8 38 20 W 9 0 0,0
12.12.2017 20:00:00 -2,3 -4,2 -0,1 0,2 0,9 4,1 15 8 34 19 W 35 0 0,0
12.12.2017 19:00:00 -2,4 -4,1 -0,1 0,2 0,9 4,1 16 9 40 21 W 33 0 0,0
12.12.2017 18:00:00 -2,6 -4,5 0,0 0,2 0,9 4,1 18 10 36 19 WSW 41 0 0,0
12.12.2017 17:00:00 -2,4 -4,4 0,0 0,2 0,9 4,1 16 9 36 20 W 40 0 0,0
12.12.2017 16:00:00 -2,5 -4,6 0,0 0,2 0,8 4,1 16 9 40 22 WSW 30 0 0,0
12.12.2017 15:00:00 -2,3 -4,9 0,0 0,2 0,8 4,1 18 10 37 20 W 28 0 0,0
12.12.2017 14:00:00 -2,4 -4,9 0,0 0,2 0,8 4,1 19 10 44 24 W 35 0 0,0
12.12.2017 13:00:00 -2,3 -4,5 0,0 0,2 0,8 4,1 28 15 46 25 W 21 0 0,0
12.12.2017 12:00:00 -2,4 -4,0 0,0 0,1 0,7 4,1 20 11 50 27 W 13 0 0,0
12.12.2017 11:00:00 -2,4 -3,8 0,0 0,1 0,7 4,1 19 10 56 30 W 17 0 0,0
12.12.2017 10:00:00 -2,2 -3,5 0,0 0,1 0,7 4,1 22 12 53 29 W 6 0 0,0
12.12.2017 09:00:00 -1,7 -2,6 0,0 0,1 0,6 4,1 24 13 52 28 W 19 0 0,0
12.12.2017 08:00:00 -0,6 -1,8 0,0 0,1 0,6 4,2 26 14 62 33 WSW 48 0 0,0
12.12.2017 07:00:00 0,4 -0,2 0,0 0,0 0,6 4,2 24 13 56 30 SW 31 0 0,5
12.12.2017 06:00:00 0,8 0,4 0,0 0,0 0,7 4,2 21 11 44 24 SW 3,1 0 0,1
12.12.2017 05:00:00 0,8 0,6 0,0 0,1 0,8 4,2 20 11 42 23 SW 0,8 0 0,0
12.12.2017 04:00:00 1,1 0,7 0,0 0,2 0,8 4,2 19 10 45 25 SW 10 0 0,6
12.12.2017 03:00:00 1,1 0,7 0,0 0,2 0,8 4,2 20 11 48 26 WSW 4,6 0 0,6
12.12.2017 02:00:00 1,0 0,7 0,0 0,1 0,7 4,2 21 11 45 24 WSW 6 0 0,3
12.12.2017 01:00:00 1,2 1,0 -0,1 0,1 0,7 4,2 18 10 43 23 WSW 0,8 0 0,0
12.12.2017 00:00:00 1,4 1,0 -0,1 0,1 0,7 4,2 16 9 31 17 WSW 19 0 0,0
11.12.2017 23:00:00 1,6 1,0 -0,1 0,1 0,6 4,2 9 5 18 10 SW 22 0 0,0
11.12.2017 22:00:00 1,3 1,0 -0,1 0,1 0,5 4,2 6 3 16 9 SW 5 0 0,0
11.12.2017 21:00:00 1,3 0,9 -0,1 0,0 0,5 4,2 6 4 11 6 SW 13 0 0,0
11.12.2017 20:00:00 0,8 0,4 -0,1 0,0 0,4 4,3 6 4 16 9 SW 4,4 0 0,0
11.12.2017 19:00:00 1,5 0,6 -0,1 0,0 0,4 4,3 9 5 21 11 SSW 22 0 0,0
11.12.2017 18:00:00 2,2 1,2 -0,1 0,0 0,3 4,4 10 5 28 15 WSW 54 0 0,0
11.12.2017 17:00:00 2,1 1,2 -0,1 0,0 0,3 4,5 12 6 31 17 S 55 0 0,2
11.12.2017 16:00:00 2,3 1,0 -0,1 0,0 0,5 4,5 16 9 40 21 S 30 0 0,0
11.12.2017 15:00:00 2,5 0,9 -0,2 0,4 1,2 4,5 19 10 39 21 S 70 0 0,0
11.12.2017 14:00:00 2,0 1,6 -0,2 0,4 1,2 4,5 22 12 41 22 S 24 0 0,5
11.12.2017 13:00:00 1,6 1,4 -0,2 0,4 1,2 4,5 21 11 38 20 S 4,4 0 0,9
11.12.2017 12:00:00 1,0 0,9 -0,3 0,4 1,2 4,5 18 10 40 22 S 2,9 0 0,5
11.12.2017 11:00:00 0,7 0,6 -0,3 0,4 1,2 4,5 16 9 29 16 S 1,6 0 0,2
11.12.2017 10:00:00 0,8 0,7 -0,3 0,4 1,2 4,5 10 5 32 18 S 4,5 0 0,0
11.12.2017 09:00:00 0,5 0,4 -0,4 0,4 1,2 4,5 12 6 24 13 SSW 0,2 0 0,0
11.12.2017 08:00:00 0,5 0,3 -0,4 0,4 1,2 4,5 9 5 29 16 SW 1,5 0 0,0
11.12.2017 07:00:00 0,4 0,3 -0,5 0,4 1,2 4,5 13 7 31 17 SW 0,3 0 0,0
11.12.2017 06:00:00 0,5 0,4 -0,5 0,4 1,2 4,5 14 8 39 21 WSW 0,4 0 0,2
11.12.2017 05:00:00 0,6 0,4 -0,6 0,4 1,2 4,5 14 8 33 18 WSW 6 0 0,3
11.12.2017 04:00:00 0,5 0,2 -0,6 0,4 1,2 4,5 19 10 35 19 WSW 11 0 0,3
11.12.2017 03:00:00 0,1 -0,1 -0,7 0,4 1,2 4,5 18 10 42 23 WSW 2,0 0 0,3
11.12.2017 02:00:00 0,0 -0,4 -0,7 0,4 1,2 4,5 22 12 55 30 SW 2,4 0 0,2
11.12.2017 01:00:00 0,1 -0,5 -0,7 0,4 1,2 4,5 20 11 46 25 SW 9 0 0,0
11.12.2017 00:00:00 0,0 -0,3 -0,8 0,4 1,2 4,5 19 11 53 28 SW 6 0 0,1
10.12.2017 23:00:00 -0,2 -0,5 -0,8 0,4 1,2 4,5 22 12 50 27 SW 8 0 0,6
10.12.2017 22:00:00 -1,2 -1,5 -0,8 0,4 1,2 4,5 21 11 53 29 SW 4,2 0 0,1
10.12.2017 21:00:00 -2,7 -2,9 -0,8 0,4 1,2 4,5 18 10 41 22 SW 0,4 0 0,0
10.12.2017 20:00:00 -4,0 -4,9 -0,8 0,4 1,2 4,5 17 9 41 22 SW 4,3 0 0,4
10.12.2017 19:00:00 -5,2 -6,5 -0,8 0,4 1,2 4,5 16 9 39 21 SSW 0,9 0 0,1
10.12.2017 18:00:00 -6,1 -7,5 -0,8 0,4 1,2 4,5 18 10 50 27 SSW 1,6 0 0,1
10.12.2017 17:00:00 -6,6 -8,1 -0,8 0,4 1,2 4,5 23 12 55 30 SSW 1,2 0 0,5
10.12.2017 16:00:00 -7,0 -8,6 -0,8 0,4 1,2 4,5 26 14 49 26 S 1,4 0 0,6
10.12.2017 15:00:00 -7,2 -8,9 -0,8 0,4 1,2 4,5 25 14 52 28 S 1,8 0 0,2
10.12.2017 14:00:00 -7,0 -9,1 -0,8 0,4 1,2 4,5 20 11 40 22 S 30 0 0,0
10.12.2017 13:00:00 -7,2 -8,7 -0,8 0,4 1,2 4,5 16 9 34 18 S 16 0 0,0
10.12.2017 12:00:00 -7,4 -8,9 -0,8 0,4 1,2 4,5 16 9 31 17 SSE 15 0 0,0
10.12.2017 11:00:00 -7,5 -8,8 -0,8 0,4 1,2 4,5 13 7 34 18 S 17 0 0,0
10.12.2017 10:00:00 -7,6 -8,7 -0,8 0,4 1,2 4,5 16 9 33 18 SSW 14 0 0,0
10.12.2017 09:00:00 -7,2 -8,7 -0,8 0,4 1,2 4,5 17 9 42 23 SW 36 0 0,0
10.12.2017 08:00:00 -7,2 -8,9 -0,7 0,4 1,2 4,5 19 11 38 20 SW 40 0 0,0
10.12.2017 07:00:00 -6,9 -8,5 -0,7 0,4 1,2 4,5 18 10 43 23 SW 40 0 0,0
10.12.2017 06:00:00 -6,5 -8,0 -0,7 0,4 1,2 4,5 20 11 42 23 SW 35 0 0,0
10.12.2017 05:00:00 -6,2 -7,8 -0,7 0,4 1,2 4,5 17 9 36 20 WSW 30 0 0,0
10.12.2017 04:00:00 -6,3 -7,7 -0,7 0,4 1,2 4,6 16 9 34 18 WSW 33 0 0,0
10.12.2017 03:00:00 -6,3 -7,8 -0,7 0,4 1,2 4,6 16 9 39 21 WSW 30 0 0,0
10.12.2017 02:00:00 -6,2 -7,9 -0,7 0,4 1,2 4,6 22 12 50 27 W 8 0 0,0
10.12.2017 01:00:00 -6,1 -7,2 -0,7 0,4 1,2 4,6 16 9 35 19 W 17 0 0,0
10.12.2017 00:00:00 -5,9 -6,7 -0,7 0,4 1,2 4,6 19 10 40 21 W 8 0 0,0
09.12.2017 23:00:00 -5,8 -6,7 -0,7 0,4 1,2 4,6 25 14 45 24 W 13 0 0,0
09.12.2017 22:00:00 -5,6 -6,4 -0,7 0,4 1,2 4,6 20 11 38 20 W 5 0 0,1
09.12.2017 21:00:00 -5,5 -6,5 -0,7 0,4 1,2 4,6 19 10 46 25 W 6 0 0,1
09.12.2017 20:00:00 -5,6 -6,5 -0,7 0,4 1,2 4,6 20 11 40 22 W 12 0 0,0
09.12.2017 19:00:00 -5,6 -6,5 -0,7 0,4 1,2 4,6 18 10 40 22 W 4,0 0 0,0
09.12.2017 18:00:00 -5,7 -6,7 -0,7 0,4 1,2 4,6 21 11 41 22 W 4,6 0 0,0

tt = Température de l'air
td = dewpoint
tt 5cm = Température de l'air 5cm
tt -5cm = Température de l'air -5cm
tt -20cm = Température de l'air -20cm
tt -100cm = Température de l'air -100cm
ff = Vitesse du vent
fx = gusts
dd = Direction du vent
vv = visibility
sd = Ensoleillement
rr = Quantités de précipitations

stations d'obs. à proximité